KCGI/CGI METAR and TAF weather

Enter ICAO airport designator
Station Type Date Time Source
KCGI METAR 2022/01/23 11:53 UTC NOAA

KCGI 231153Z AUTO 19005KT 10SM BKN095 M02/M06 A3006 RMK AO2 SLP183 T10171061 11006 21044 56025


Station Type Date Time Source
KCGI Decoded METAR 2022/01/23 11:53 UTC NOAA

CAPE GIRARDEAU REGIONAL, MO, United States (KCGI) 37-14N 089-35W 102M
Jan 23, 2022 - 06:53 AM EST / 2022.01.23 1153 UTC
Wind: from the S (190 degrees) at 6 MPH (5 KT):0
Visibility: 10 mile(s):0
Sky conditions: mostly cloudy
Temperature: 28.9 F (-1.7 C)
Windchill: 23 F (-5 C):1
Dew Point: 21.0 F (-6.1 C)
Relative Humidity: 71%
Pressure (altimeter): 30.06 in. Hg (1017 hPa)
Pressure tendency: 0.07 inches (2.5 hPa) lower than three hours ago
ob: KCGI 231153Z AUTO 19005KT 10SM BKN095 M02/M06 A3006 RMK AO2 SLP183 T10171061 11006 21044 56025
cycle: 12

Station Type Date Time Source
KCGI TAF 2022/01/23 12:34 UTC NOAA

TAF KCGI 231132Z 2312/2412 21008KT P6SM SCT080 BKN200
FM231500 25009G18KT P6SM SCT250
FM231800 31011G21KT P6SM BKN035
FM232200 VRB03KT P6SM SCT200

Example: see airport list